sensor_id;sensor_type;location;lat;lon;timestamp;P1;durP1;ratioP1;P2;durP2;ratioP2
67941;SDS011;54731;42.600;23.476;2023-06-22T00:00:50;9.20;;;7.72;;
67941;SDS011;54731;42.600;23.476;2023-06-22T00:03:17;10.30;;;8.10;;
67941;SDS011;54731;42.600;23.476;2023-06-22T00:05:43;12.05;;;8.07;;
67941;SDS011;54731;42.600;23.476;2023-06-22T00:08:09;8.47;;;7.57;;
67941;SDS011;54731;42.600;23.476;2023-06-22T00:10:34;8.20;;;7.07;;
67941;SDS011;54731;42.600;23.476;2023-06-22T00:12:59;9.80;;;7.13;;
67941;SDS011;54731;42.600;23.476;2023-06-22T00:15:25;8.03;;;5.93;;
67941;SDS011;54731;42.600;23.476;2023-06-22T00:17:50;9.27;;;6.73;;
67941;SDS011;54731;42.600;23.476;2023-06-22T00:20:16;9.10;;;6.63;;
67941;SDS011;54731;42.600;23.476;2023-06-22T00:22:41;8.67;;;6.97;;
67941;SDS011;54731;42.600;23.476;2023-06-22T00:25:07;10.85;;;6.40;;
67941;SDS011;54731;42.600;23.476;2023-06-22T00:27:33;7.93;;;6.93;;
67941;SDS011;54731;42.600;23.476;2023-06-22T00:29:58;9.60;;;6.37;;
67941;SDS011;54731;42.600;23.476;2023-06-22T00:32:23;7.63;;;6.83;;
67941;SDS011;54731;42.600;23.476;2023-06-22T00:34:48;9.37;;;7.07;;
67941;SDS011;54731;42.600;23.476;2023-06-22T00:37:14;8.70;;;7.50;;
67941;SDS011;54731;42.600;23.476;2023-06-22T00:39:39;8.85;;;6.35;;
67941;SDS011;54731;42.600;23.476;2023-06-22T00:42:04;8.93;;;6.30;;
67941;SDS011;54731;42.600;23.476;2023-06-22T00:44:30;8.57;;;6.53;;
67941;SDS011;54731;42.600;23.476;2023-06-22T00:46:55;9.47;;;6.30;;
67941;SDS011;54731;42.600;23.476;2023-06-22T00:49:21;7.83;;;6.50;;
67941;SDS011;54731;42.600;23.476;2023-06-22T00:51:46;8.00;;;6.90;;
67941;SDS011;54731;42.600;23.476;2023-06-22T00:54:11;8.77;;;7.10;;
67941;SDS011;54731;42.600;23.476;2023-06-22T00:56:37;10.23;;;6.63;;
67941;SDS011;54731;42.600;23.476;2023-06-22T00:59:02;10.10;;;7.37;;
67941;SDS011;54731;42.600;23.476;2023-06-22T01:01:28;8.57;;;5.67;;
67941;SDS011;54731;42.600;23.476;2023-06-22T01:03:53;7.17;;;5.97;;
67941;SDS011;54731;42.600;23.476;2023-06-22T01:06:21;7.80;;;5.78;;
67941;SDS011;54731;42.600;23.476;2023-06-22T01:09:00;8.07;;;6.83;;
67941;SDS011;54731;42.600;23.476;2023-06-22T01:11:32;8.70;;;6.53;;
67941;SDS011;54731;42.600;23.476;2023-06-22T01:17:08;7.75;;;6.47;;
67941;SDS011;54731;42.600;23.476;2023-06-22T01:22:03;7.70;;;6.90;;
67941;SDS011;54731;42.600;23.476;2023-06-22T01:24:32;9.52;;;6.57;;
67941;SDS011;54731;42.600;23.476;2023-06-22T01:29:55;7.88;;;6.43;;
67941;SDS011;54731;42.600;23.476;2023-06-22T01:32:22;10.35;;;6.30;;
67941;SDS011;54731;42.600;23.476;2023-06-22T01:34:47;11.57;;;6.03;;
67941;SDS011;54731;42.600;23.476;2023-06-22T01:37:14;8.43;;;5.95;;
67941;SDS011;54731;42.600;23.476;2023-06-22T01:39:40;7.60;;;6.00;;
67941;SDS011;54731;42.600;23.476;2023-06-22T01:42:06;6.82;;;6.00;;
67941;SDS011;54731;42.600;23.476;2023-06-22T01:44:31;8.93;;;5.77;;
67941;SDS011;54731;42.600;23.476;2023-06-22T01:46:58;7.75;;;6.10;;
67941;SDS011;54731;42.600;23.476;2023-06-22T01:49:24;8.45;;;6.32;;
67941;SDS011;54731;42.600;23.476;2023-06-22T01:51:50;7.87;;;6.47;;
67941;SDS011;54731;42.600;23.476;2023-06-22T01:54:16;10.93;;;7.35;;
67941;SDS011;54731;42.600;23.476;2023-06-22T01:56:41;9.93;;;7.20;;
67941;SDS011;54731;42.600;23.476;2023-06-22T01:59:11;10.67;;;7.67;;
67941;SDS011;54731;42.600;23.476;2023-06-22T02:01:42;9.32;;;6.70;;
67941;SDS011;54731;42.600;23.476;2023-06-22T02:04:16;8.13;;;6.28;;
67941;SDS011;54731;42.600;23.476;2023-06-22T02:06:46;8.32;;;5.88;;
67941;SDS011;54731;42.600;23.476;2023-06-22T02:09:16;6.85;;;5.93;;
67941;SDS011;54731;42.600;23.476;2023-06-22T02:11:44;8.85;;;6.38;;
67941;SDS011;54731;42.600;23.476;2023-06-22T02:14:12;7.40;;;6.30;;
67941;SDS011;54731;42.600;23.476;2023-06-22T02:16:38;10.40;;;6.67;;
67941;SDS011;54731;42.600;23.476;2023-06-22T02:19:03;8.20;;;6.78;;
67941;SDS011;54731;42.600;23.476;2023-06-22T02:21:29;8.67;;;6.50;;
67941;SDS011;54731;42.600;23.476;2023-06-22T02:23:55;7.88;;;6.68;;
67941;SDS011;54731;42.600;23.476;2023-06-22T02:26:20;7.80;;;6.37;;
67941;SDS011;54731;42.600;23.476;2023-06-22T02:28:46;6.93;;;6.23;;
67941;SDS011;54731;42.600;23.476;2023-06-22T02:31:11;7.80;;;6.33;;
67941;SDS011;54731;42.600;23.476;2023-06-22T02:33:36;8.30;;;6.27;;
67941;SDS011;54731;42.600;23.476;2023-06-22T02:36:02;9.13;;;6.72;;
67941;SDS011;54731;42.600;23.476;2023-06-22T02:38:27;8.33;;;6.73;;
67941;SDS011;54731;42.600;23.476;2023-06-22T02:40:52;7.60;;;6.00;;
67941;SDS011;54731;42.600;23.476;2023-06-22T02:43:18;8.40;;;5.87;;
67941;SDS011;54731;42.600;23.476;2023-06-22T02:45:43;9.77;;;6.90;;
67941;SDS011;54731;42.600;23.476;2023-06-22T02:48:08;8.67;;;6.80;;
67941;SDS011;54731;42.600;23.476;2023-06-22T02:50:35;9.20;;;6.72;;
67941;SDS011;54731;42.600;23.476;2023-06-22T02:53:00;9.30;;;6.43;;
67941;SDS011;54731;42.600;23.476;2023-06-22T02:55:25;8.53;;;6.83;;
67941;SDS011;54731;42.600;23.476;2023-06-22T02:57:50;9.40;;;6.97;;
67941;SDS011;54731;42.600;23.476;2023-06-22T03:00:16;9.15;;;6.43;;
67941;SDS011;54731;42.600;23.476;2023-06-22T03:02:41;9.93;;;6.13;;
67941;SDS011;54731;42.600;23.476;2023-06-22T03:05:07;7.17;;;6.27;;
67941;SDS011;54731;42.600;23.476;2023-06-22T03:07:32;9.70;;;7.40;;
67941;SDS011;54731;42.600;23.476;2023-06-22T03:09:57;9.33;;;7.00;;
67941;SDS011;54731;42.600;23.476;2023-06-22T03:12:23;9.00;;;7.63;;
67941;SDS011;54731;42.600;23.476;2023-06-22T03:14:48;10.07;;;7.40;;
67941;SDS011;54731;42.600;23.476;2023-06-22T03:17:13;10.60;;;8.33;;
67941;SDS011;54731;42.600;23.476;2023-06-22T03:19:38;9.37;;;7.43;;
67941;SDS011;54731;42.600;23.476;2023-06-22T03:22:04;9.25;;;6.88;;
67941;SDS011;54731;42.600;23.476;2023-06-22T03:24:29;8.90;;;7.30;;
67941;SDS011;54731;42.600;23.476;2023-06-22T03:26:54;10.07;;;7.43;;
67941;SDS011;54731;42.600;23.476;2023-06-22T03:29:20;7.87;;;6.50;;
67941;SDS011;54731;42.600;23.476;2023-06-22T03:31:45;10.60;;;7.18;;
67941;SDS011;54731;42.600;23.476;2023-06-22T03:34:11;8.88;;;7.35;;
67941;SDS011;54731;42.600;23.476;2023-06-22T03:36:36;9.07;;;7.20;;
67941;SDS011;54731;42.600;23.476;2023-06-22T03:39:01;9.83;;;6.97;;
67941;SDS011;54731;42.600;23.476;2023-06-22T03:41:27;8.90;;;7.30;;
67941;SDS011;54731;42.600;23.476;2023-06-22T03:43:52;11.80;;;7.73;;
67941;SDS011;54731;42.600;23.476;2023-06-22T03:46:17;12.90;;;8.63;;
67941;SDS011;54731;42.600;23.476;2023-06-22T03:48:42;12.37;;;9.80;;
67941;SDS011;54731;42.600;23.476;2023-06-22T03:51:08;11.03;;;9.07;;
67941;SDS011;54731;42.600;23.476;2023-06-22T03:53:33;16.03;;;9.97;;
67941;SDS011;54731;42.600;23.476;2023-06-22T03:55:58;17.05;;;10.63;;
67941;SDS011;54731;42.600;23.476;2023-06-22T03:58:24;18.90;;;10.17;;
67941;SDS011;54731;42.600;23.476;2023-06-22T04:00:49;13.73;;;11.27;;
67941;SDS011;54731;42.600;23.476;2023-06-22T04:03:16;12.73;;;10.93;;
67941;SDS011;54731;42.600;23.476;2023-06-22T04:05:41;13.63;;;12.23;;
67941;SDS011;54731;42.600;23.476;2023-06-22T04:08:07;13.37;;;11.60;;
67941;SDS011;54731;42.600;23.476;2023-06-22T04:10:33;16.63;;;11.20;;
67941;SDS011;54731;42.600;23.476;2023-06-22T04:12:58;15.60;;;11.37;;
67941;SDS011;54731;42.600;23.476;2023-06-22T04:15:24;12.27;;;10.93;;
67941;SDS011;54731;42.600;23.476;2023-06-22T04:17:49;12.23;;;10.70;;
67941;SDS011;54731;42.600;23.476;2023-06-22T04:20:14;13.97;;;11.17;;
67941;SDS011;54731;42.600;23.476;2023-06-22T04:22:40;15.97;;;12.20;;
67941;SDS011;54731;42.600;23.476;2023-06-22T04:25:05;17.60;;;10.67;;
67941;SDS011;54731;42.600;23.476;2023-06-22T04:27:31;15.88;;;11.60;;
67941;SDS011;54731;42.600;23.476;2023-06-22T04:29:57;16.33;;;12.57;;
67941;SDS011;54731;42.600;23.476;2023-06-22T04:32:22;18.97;;;11.77;;
67941;SDS011;54731;42.600;23.476;2023-06-22T04:34:47;15.83;;;12.57;;
67941;SDS011;54731;42.600;23.476;2023-06-22T04:37:12;19.25;;;12.88;;
67941;SDS011;54731;42.600;23.476;2023-06-22T04:39:38;18.17;;;11.93;;
67941;SDS011;54731;42.600;23.476;2023-06-22T04:42:03;16.57;;;12.37;;
67941;SDS011;54731;42.600;23.476;2023-06-22T04:44:29;18.47;;;12.73;;
67941;SDS011;54731;42.600;23.476;2023-06-22T04:46:55;14.60;;;12.87;;
67941;SDS011;54731;42.600;23.476;2023-06-22T04:49:21;26.40;;;12.32;;
67941;SDS011;54731;42.600;23.476;2023-06-22T04:51:47;17.17;;;12.47;;
67941;SDS011;54731;42.600;23.476;2023-06-22T04:54:12;17.23;;;13.73;;
67941;SDS011;54731;42.600;23.476;2023-06-22T04:56:38;20.27;;;12.87;;
67941;SDS011;54731;42.600;23.476;2023-06-22T04:59:03;18.30;;;12.97;;
67941;SDS011;54731;42.600;23.476;2023-06-22T05:01:29;21.90;;;12.87;;
67941;SDS011;54731;42.600;23.476;2023-06-22T05:03:54;25.65;;;12.55;;
67941;SDS011;54731;42.600;23.476;2023-06-22T05:06:19;19.40;;;13.23;;
67941;SDS011;54731;42.600;23.476;2023-06-22T05:08:45;16.83;;;13.83;;
67941;SDS011;54731;42.600;23.476;2023-06-22T05:11:10;16.20;;;13.20;;
67941;SDS011;54731;42.600;23.476;2023-06-22T05:13:35;15.27;;;12.63;;
67941;SDS011;54731;42.600;23.476;2023-06-22T05:16:00;16.17;;;12.63;;
67941;SDS011;54731;42.600;23.476;2023-06-22T05:18:27;16.53;;;13.23;;
67941;SDS011;54731;42.600;23.476;2023-06-22T05:20:53;16.80;;;12.90;;
67941;SDS011;54731;42.600;23.476;2023-06-22T05:23:18;16.70;;;12.53;;
67941;SDS011;54731;42.600;23.476;2023-06-22T05:25:44;15.43;;;12.23;;
67941;SDS011;54731;42.600;23.476;2023-06-22T05:28:09;18.63;;;12.73;;
67941;SDS011;54731;42.600;23.476;2023-06-22T05:30:34;14.68;;;12.32;;
67941;SDS011;54731;42.600;23.476;2023-06-22T05:32:59;14.60;;;12.53;;
67941;SDS011;54731;42.600;23.476;2023-06-22T05:35:25;16.07;;;12.70;;
67941;SDS011;54731;42.600;23.476;2023-06-22T05:37:50;15.13;;;12.60;;
67941;SDS011;54731;42.600;23.476;2023-06-22T05:40:15;17.40;;;12.47;;
67941;SDS011;54731;42.600;23.476;2023-06-22T05:42:41;18.77;;;12.43;;
67941;SDS011;54731;42.600;23.476;2023-06-22T05:45:06;14.63;;;11.57;;
67941;SDS011;54731;42.600;23.476;2023-06-22T05:47:31;15.52;;;12.77;;
67941;SDS011;54731;42.600;23.476;2023-06-22T05:49:57;16.17;;;12.80;;
67941;SDS011;54731;42.600;23.476;2023-06-22T05:52:22;16.37;;;13.27;;
67941;SDS011;54731;42.600;23.476;2023-06-22T05:54:47;15.03;;;12.60;;
67941;SDS011;54731;42.600;23.476;2023-06-22T05:57:13;18.30;;;13.30;;
67941;SDS011;54731;42.600;23.476;2023-06-22T05:59:38;18.30;;;13.73;;
67941;SDS011;54731;42.600;23.476;2023-06-22T06:02:03;16.77;;;13.03;;
67941;SDS011;54731;42.600;23.476;2023-06-22T06:04:29;20.60;;;13.63;;
67941;SDS011;54731;42.600;23.476;2023-06-22T06:06:54;16.17;;;14.10;;
67941;SDS011;54731;42.600;23.476;2023-06-22T06:09:19;16.83;;;13.57;;
67941;SDS011;54731;42.600;23.476;2023-06-22T06:11:45;17.57;;;12.93;;
67941;SDS011;54731;42.600;23.476;2023-06-22T06:14:10;16.27;;;13.20;;
67941;SDS011;54731;42.600;23.476;2023-06-22T06:16:35;17.53;;;14.00;;
67941;SDS011;54731;42.600;23.476;2023-06-22T06:19:01;17.23;;;13.23;;
67941;SDS011;54731;42.600;23.476;2023-06-22T06:21:26;22.63;;;14.43;;
67941;SDS011;54731;42.600;23.476;2023-06-22T06:23:51;16.57;;;13.83;;
67941;SDS011;54731;42.600;23.476;2023-06-22T06:26:16;17.60;;;13.67;;
67941;SDS011;54731;42.600;23.476;2023-06-22T06:28:42;15.00;;;13.18;;
67941;SDS011;54731;42.600;23.476;2023-06-22T06:31:08;15.83;;;13.63;;
67941;SDS011;54731;42.600;23.476;2023-06-22T06:33:34;18.42;;;13.63;;
67941;SDS011;54731;42.600;23.476;2023-06-22T06:35:59;17.60;;;13.63;;
67941;SDS011;54731;42.600;23.476;2023-06-22T06:38:24;27.77;;;13.97;;
67941;SDS011;54731;42.600;23.476;2023-06-22T06:40:50;17.23;;;14.00;;
67941;SDS011;54731;42.600;23.476;2023-06-22T06:43:15;15.63;;;12.27;;
67941;SDS011;54731;42.600;23.476;2023-06-22T06:45:40;16.63;;;13.50;;
67941;SDS011;54731;42.600;23.476;2023-06-22T06:48:06;15.60;;;12.57;;
67941;SDS011;54731;42.600;23.476;2023-06-22T06:50:31;19.10;;;13.52;;
67941;SDS011;54731;42.600;23.476;2023-06-22T06:52:56;23.65;;;14.02;;
67941;SDS011;54731;42.600;23.476;2023-06-22T06:55:22;16.70;;;13.53;;
67941;SDS011;54731;42.600;23.476;2023-06-22T06:57:47;15.17;;;12.70;;
67941;SDS011;54731;42.600;23.476;2023-06-22T07:00:12;18.00;;;12.00;;
67941;SDS011;54731;42.600;23.476;2023-06-22T07:02:39;13.13;;;11.50;;
67941;SDS011;54731;42.600;23.476;2023-06-22T07:05:05;14.57;;;11.05;;
67941;SDS011;54731;42.600;23.476;2023-06-22T07:07:31;17.40;;;10.73;;
67941;SDS011;54731;42.600;23.476;2023-06-22T07:09:56;13.75;;;10.85;;
67941;SDS011;54731;42.600;23.476;2023-06-22T07:12:22;14.67;;;10.60;;
67941;SDS011;54731;42.600;23.476;2023-06-22T07:14:47;12.40;;;10.07;;
67941;SDS011;54731;42.600;23.476;2023-06-22T07:17:12;15.23;;;9.73;;
67941;SDS011;54731;42.600;23.476;2023-06-22T07:19:37;14.40;;;11.17;;
67941;SDS011;54731;42.600;23.476;2023-06-22T07:22:03;13.80;;;10.57;;
67941;SDS011;54731;42.600;23.476;2023-06-22T07:24:28;11.65;;;9.93;;
67941;SDS011;54731;42.600;23.476;2023-06-22T07:26:54;15.07;;;10.80;;
67941;SDS011;54731;42.600;23.476;2023-06-22T07:29:19;13.03;;;10.63;;
67941;SDS011;54731;42.600;23.476;2023-06-22T07:31:45;13.73;;;9.10;;
67941;SDS011;54731;42.600;23.476;2023-06-22T07:34:10;12.33;;;9.00;;
67941;SDS011;54731;42.600;23.476;2023-06-22T07:36:36;9.60;;;8.53;;
67941;SDS011;54731;42.600;23.476;2023-06-22T07:39:04;10.40;;;8.67;;
67941;SDS011;54731;42.600;23.476;2023-06-22T07:41:30;11.40;;;8.60;;
67941;SDS011;54731;42.600;23.476;2023-06-22T07:43:56;9.35;;;7.53;;
67941;SDS011;54731;42.600;23.476;2023-06-22T07:46:21;10.23;;;8.03;;
67941;SDS011;54731;42.600;23.476;2023-06-22T07:48:47;10.40;;;9.27;;
67941;SDS011;54731;42.600;23.476;2023-06-22T07:51:13;9.32;;;8.40;;
67941;SDS011;54731;42.600;23.476;2023-06-22T07:53:39;10.93;;;8.43;;
67941;SDS011;54731;42.600;23.476;2023-06-22T07:56:05;12.33;;;8.83;;
67941;SDS011;54731;42.600;23.476;2023-06-22T07:58:31;16.83;;;9.02;;
67941;SDS011;54731;42.600;23.476;2023-06-22T08:00:56;10.60;;;9.27;;
67941;SDS011;54731;42.600;23.476;2023-06-22T08:03:21;11.47;;;9.03;;
67941;SDS011;54731;42.600;23.476;2023-06-22T08:05:47;13.87;;;9.07;;
67941;SDS011;54731;42.600;23.476;2023-06-22T08:08:12;12.13;;;9.20;;
67941;SDS011;54731;42.600;23.476;2023-06-22T08:10:37;13.50;;;8.63;;
67941;SDS011;54731;42.600;23.476;2023-06-22T08:13:02;10.67;;;8.27;;
67941;SDS011;54731;42.600;23.476;2023-06-22T08:15:28;10.03;;;8.60;;
67941;SDS011;54731;42.600;23.476;2023-06-22T08:17:53;11.97;;;8.57;;
67941;SDS011;54731;42.600;23.476;2023-06-22T08:20:18;12.90;;;9.23;;
67941;SDS011;54731;42.600;23.476;2023-06-22T08:22:44;11.73;;;9.20;;
67941;SDS011;54731;42.600;23.476;2023-06-22T08:25:09;10.83;;;8.33;;
67941;SDS011;54731;42.600;23.476;2023-06-22T08:27:36;10.67;;;8.73;;
67941;SDS011;54731;42.600;23.476;2023-06-22T08:30:01;9.38;;;7.57;;
67941;SDS011;54731;42.600;23.476;2023-06-22T08:32:28;12.88;;;8.38;;
67941;SDS011;54731;42.600;23.476;2023-06-22T08:34:57;9.57;;;7.63;;
67941;SDS011;54731;42.600;23.476;2023-06-22T08:37:22;13.55;;;8.10;;
67941;SDS011;54731;42.600;23.476;2023-06-22T08:39:48;24.63;;;12.02;;
67941;SDS011;54731;42.600;23.476;2023-06-22T08:42:13;17.80;;;10.20;;
67941;SDS011;54731;42.600;23.476;2023-06-22T08:44:39;12.00;;;8.23;;
67941;SDS011;54731;42.600;23.476;2023-06-22T08:47:04;8.93;;;8.03;;
67941;SDS011;54731;42.600;23.476;2023-06-22T08:49:29;11.90;;;8.77;;
67941;SDS011;54731;42.600;23.476;2023-06-22T08:51:55;10.70;;;8.40;;
67941;SDS011;54731;42.600;23.476;2023-06-22T08:54:20;13.63;;;10.75;;
67941;SDS011;54731;42.600;23.476;2023-06-22T08:56:45;12.80;;;9.00;;
67941;SDS011;54731;42.600;23.476;2023-06-22T08:59:10;12.43;;;8.07;;
67941;SDS011;54731;42.600;23.476;2023-06-22T09:01:36;10.07;;;8.47;;
67941;SDS011;54731;42.600;23.476;2023-06-22T09:04:01;10.63;;;8.13;;
67941;SDS011;54731;42.600;23.476;2023-06-22T09:06:26;17.17;;;9.23;;
67941;SDS011;54731;42.600;23.476;2023-06-22T09:08:52;10.60;;;8.63;;
67941;SDS011;54731;42.600;23.476;2023-06-22T09:11:17;9.47;;;8.37;;
67941;SDS011;54731;42.600;23.476;2023-06-22T09:13:42;8.93;;;7.63;;
67941;SDS011;54731;42.600;23.476;2023-06-22T09:16:07;8.73;;;7.55;;
67941;SDS011;54731;42.600;23.476;2023-06-22T09:18:36;10.25;;;7.70;;
67941;SDS011;54731;42.600;23.476;2023-06-22T09:21:01;10.93;;;7.93;;
67941;SDS011;54731;42.600;23.476;2023-06-22T09:23:27;13.60;;;8.68;;
67941;SDS011;54731;42.600;23.476;2023-06-22T09:25:52;8.87;;;7.97;;
67941;SDS011;54731;42.600;23.476;2023-06-22T09:28:17;13.17;;;9.77;;
67941;SDS011;54731;42.600;23.476;2023-06-22T09:30:43;11.03;;;8.97;;
67941;SDS011;54731;42.600;23.476;2023-06-22T09:33:08;12.48;;;8.35;;
67941;SDS011;54731;42.600;23.476;2023-06-22T09:35:34;10.07;;;8.37;;
67941;SDS011;54731;42.600;23.476;2023-06-22T09:37:59;11.20;;;8.20;;
67941;SDS011;54731;42.600;23.476;2023-06-22T09:40:24;9.10;;;8.20;;
67941;SDS011;54731;42.600;23.476;2023-06-22T09:42:50;13.67;;;8.40;;
67941;SDS011;54731;42.600;23.476;2023-06-22T09:45:15;10.70;;;9.60;;
67941;SDS011;54731;42.600;23.476;2023-06-22T09:47:40;11.67;;;8.30;;
67941;SDS011;54731;42.600;23.476;2023-06-22T09:50:06;10.33;;;9.23;;
67941;SDS011;54731;42.600;23.476;2023-06-22T09:52:31;8.88;;;7.97;;
67941;SDS011;54731;42.600;23.476;2023-06-22T09:54:56;10.40;;;8.17;;
67941;SDS011;54731;42.600;23.476;2023-06-22T09:57:22;10.57;;;8.07;;
67941;SDS011;54731;42.600;23.476;2023-06-22T09:59:47;10.83;;;8.10;;
67941;SDS011;54731;42.600;23.476;2023-06-22T10:02:12;9.60;;;8.33;;
67941;SDS011;54731;42.600;23.476;2023-06-22T10:04:38;15.33;;;9.07;;
67941;SDS011;54731;42.600;23.476;2023-06-22T10:07:03;10.23;;;7.90;;
67941;SDS011;54731;42.600;23.476;2023-06-22T10:09:28;11.83;;;8.67;;
67941;SDS011;54731;42.600;23.476;2023-06-22T10:11:54;11.48;;;7.63;;
67941;SDS011;54731;42.600;23.476;2023-06-22T10:14:19;11.60;;;8.63;;
67941;SDS011;54731;42.600;23.476;2023-06-22T10:16:44;10.97;;;8.97;;
67941;SDS011;54731;42.600;23.476;2023-06-22T10:19:10;11.80;;;8.93;;
67941;SDS011;54731;42.600;23.476;2023-06-22T10:21:35;15.23;;;8.37;;
67941;SDS011;54731;42.600;23.476;2023-06-22T10:24:01;9.55;;;8.20;;
67941;SDS011;54731;42.600;23.476;2023-06-22T10:26:26;19.80;;;8.10;;
67941;SDS011;54731;42.600;23.476;2023-06-22T10:28:52;9.63;;;8.50;;
67941;SDS011;54731;42.600;23.476;2023-06-22T10:31:17;12.83;;;9.50;;
67941;SDS011;54731;42.600;23.476;2023-06-22T10:33:42;11.73;;;9.40;;
67941;SDS011;54731;42.600;23.476;2023-06-22T10:36:07;9.37;;;8.37;;
67941;SDS011;54731;42.600;23.476;2023-06-22T10:38:33;8.80;;;7.90;;
67941;SDS011;54731;42.600;23.476;2023-06-22T10:40:58;11.17;;;9.17;;
67941;SDS011;54731;42.600;23.476;2023-06-22T10:43:23;9.87;;;8.77;;
67941;SDS011;54731;42.600;23.476;2023-06-22T10:45:49;12.55;;;8.82;;
67941;SDS011;54731;42.600;23.476;2023-06-22T10:48:14;9.45;;;8.52;;
67941;SDS011;54731;42.600;23.476;2023-06-22T10:50:39;11.40;;;8.33;;
67941;SDS011;54731;42.600;23.476;2023-06-22T10:53:04;8.53;;;7.63;;
67941;SDS011;54731;42.600;23.476;2023-06-22T10:55:30;15.17;;;8.10;;
67941;SDS011;54731;42.600;23.476;2023-06-22T10:57:55;8.47;;;7.63;;
67941;SDS011;54731;42.600;23.476;2023-06-22T11:00:20;9.70;;;8.60;;
67941;SDS011;54731;42.600;23.476;2023-06-22T11:02:46;10.80;;;8.87;;
67941;SDS011;54731;42.600;23.476;2023-06-22T11:05:11;9.70;;;8.70;;
67941;SDS011;54731;42.600;23.476;2023-06-22T11:07:37;9.07;;;8.17;;
67941;SDS011;54731;42.600;23.476;2023-06-22T11:10:03;11.85;;;8.27;;
67941;SDS011;54731;42.600;23.476;2023-06-22T11:12:28;10.25;;;8.73;;
67941;SDS011;54731;42.600;23.476;2023-06-22T11:14:53;10.77;;;8.25;;
67941;SDS011;54731;42.600;23.476;2023-06-22T11:17:19;9.83;;;7.83;;
67941;SDS011;54731;42.600;23.476;2023-06-22T11:19:44;10.97;;;8.97;;
67941;SDS011;54731;42.600;23.476;2023-06-22T11:22:10;12.10;;;8.30;;
67941;SDS011;54731;42.600;23.476;2023-06-22T11:24:35;10.37;;;8.80;;
67941;SDS011;54731;42.600;23.476;2023-06-22T11:27:00;8.97;;;7.73;;
67941;SDS011;54731;42.600;23.476;2023-06-22T11:29:26;11.60;;;8.32;;
67941;SDS011;54731;42.600;23.476;2023-06-22T11:31:51;9.60;;;8.67;;
67941;SDS011;54731;42.600;23.476;2023-06-22T11:34:16;9.77;;;8.77;;
67941;SDS011;54731;42.600;23.476;2023-06-22T11:36:42;11.43;;;8.67;;
67941;SDS011;54731;42.600;23.476;2023-06-22T11:39:08;9.70;;;8.70;;
67941;SDS011;54731;42.600;23.476;2023-06-22T11:41:33;8.65;;;7.75;;
67941;SDS011;54731;42.600;23.476;2023-06-22T11:43:58;9.00;;;8.10;;
67941;SDS011;54731;42.600;23.476;2023-06-22T11:46:24;12.50;;;8.93;;
67941;SDS011;54731;42.600;23.476;2023-06-22T11:48:49;11.90;;;8.70;;
67941;SDS011;54731;42.600;23.476;2023-06-22T11:51:15;10.10;;;8.87;;
67941;SDS011;54731;42.600;23.476;2023-06-22T11:53:40;9.35;;;8.20;;
67941;SDS011;54731;42.600;23.476;2023-06-22T11:56:05;9.57;;;8.33;;
67941;SDS011;54731;42.600;23.476;2023-06-22T11:58:30;11.27;;;8.60;;
67941;SDS011;54731;42.600;23.476;2023-06-22T12:00:56;9.90;;;8.90;;
67941;SDS011;54731;42.600;23.476;2023-06-22T12:03:21;9.43;;;8.50;;
67941;SDS011;54731;42.600;23.476;2023-06-22T12:05:47;9.97;;;8.97;;
67941;SDS011;54731;42.600;23.476;2023-06-22T12:08:12;9.02;;;8.13;;
67941;SDS011;54731;42.600;23.476;2023-06-22T12:10:38;9.63;;;8.77;;
67941;SDS011;54731;42.600;23.476;2023-06-22T12:13:03;9.43;;;8.43;;
67941;SDS011;54731;42.600;23.476;2023-06-22T12:15:28;13.10;;;9.63;;
67941;SDS011;54731;42.600;23.476;2023-06-22T12:17:54;11.23;;;9.90;;
67941;SDS011;54731;42.600;23.476;2023-06-22T12:20:19;11.63;;;9.97;;
67941;SDS011;54731;42.600;23.476;2023-06-22T12:22:44;12.87;;;10.30;;
67941;SDS011;54731;42.600;23.476;2023-06-22T12:25:10;18.50;;;11.57;;
67941;SDS011;54731;42.600;23.476;2023-06-22T12:27:36;18.97;;;10.83;;
67941;SDS011;54731;42.600;23.476;2023-06-22T12:30:02;14.13;;;10.90;;
67941;SDS011;54731;42.600;23.476;2023-06-22T12:32:29;11.85;;;10.52;;
67941;SDS011;54731;42.600;23.476;2023-06-22T12:34:54;15.27;;;11.53;;
67941;SDS011;54731;42.600;23.476;2023-06-22T12:37:20;12.65;;;11.10;;
67941;SDS011;54731;42.600;23.476;2023-06-22T12:39:45;14.77;;;9.23;;
67941;SDS011;54731;42.600;23.476;2023-06-22T12:42:10;11.50;;;8.27;;
67941;SDS011;54731;42.600;23.476;2023-06-22T12:44:37;12.90;;;8.53;;
67941;SDS011;54731;42.600;23.476;2023-06-22T12:47:03;12.00;;;8.07;;
67941;SDS011;54731;42.600;23.476;2023-06-22T12:49:28;11.63;;;7.70;;
67941;SDS011;54731;42.600;23.476;2023-06-22T12:51:53;12.73;;;8.30;;
67941;SDS011;54731;42.600;23.476;2023-06-22T12:54:19;14.90;;;8.30;;
67941;SDS011;54731;42.600;23.476;2023-06-22T12:56:44;11.50;;;8.03;;
67941;SDS011;54731;42.600;23.476;2023-06-22T12:59:09;11.27;;;7.83;;
67941;SDS011;54731;42.600;23.476;2023-06-22T13:01:35;13.37;;;8.60;;
67941;SDS011;54731;42.600;23.476;2023-06-22T13:04:00;12.73;;;7.33;;
67941;SDS011;54731;42.600;23.476;2023-06-22T13:06:25;10.95;;;7.85;;
67941;SDS011;54731;42.600;23.476;2023-06-22T13:08:51;11.57;;;8.83;;
67941;SDS011;54731;42.600;23.476;2023-06-22T13:11:16;11.30;;;8.97;;
67941;SDS011;54731;42.600;23.476;2023-06-22T13:13:42;13.00;;;8.90;;
67941;SDS011;54731;42.600;23.476;2023-06-22T13:16:08;11.90;;;8.98;;
67941;SDS011;54731;42.600;23.476;2023-06-22T13:18:33;10.87;;;9.33;;
67941;SDS011;54731;42.600;23.476;2023-06-22T13:20:59;18.43;;;9.67;;
67941;SDS011;54731;42.600;23.476;2023-06-22T13:23:24;15.77;;;9.47;;
67941;SDS011;54731;42.600;23.476;2023-06-22T13:25:49;13.53;;;9.50;;
67941;SDS011;54731;42.600;23.476;2023-06-22T13:28:14;14.40;;;10.43;;
67941;SDS011;54731;42.600;23.476;2023-06-22T13:30:40;13.33;;;10.27;;
67941;SDS011;54731;42.600;23.476;2023-06-22T13:33:05;11.37;;;10.17;;
67941;SDS011;54731;42.600;23.476;2023-06-22T13:35:31;11.17;;;10.07;;
67941;SDS011;54731;42.600;23.476;2023-06-22T13:37:56;13.97;;;9.73;;
67941;SDS011;54731;42.600;23.476;2023-06-22T13:40:21;12.37;;;10.77;;
67941;SDS011;54731;42.600;23.476;2023-06-22T13:42:47;16.10;;;11.20;;
67941;SDS011;54731;42.600;23.476;2023-06-22T13:45:12;15.53;;;10.80;;
67941;SDS011;54731;42.600;23.476;2023-06-22T13:47:37;17.40;;;10.60;;
67941;SDS011;54731;42.600;23.476;2023-06-22T13:50:03;19.97;;;11.60;;
67941;SDS011;54731;42.600;23.476;2023-06-22T13:52:28;15.97;;;11.53;;
67941;SDS011;54731;42.600;23.476;2023-06-22T13:54:54;15.67;;;11.20;;
67941;SDS011;54731;42.600;23.476;2023-06-22T13:57:19;15.43;;;11.30;;
67941;SDS011;54731;42.600;23.476;2023-06-22T13:59:44;17.00;;;11.27;;
67941;SDS011;54731;42.600;23.476;2023-06-22T14:02:10;16.37;;;10.83;;
67941;SDS011;54731;42.600;23.476;2023-06-22T14:04:35;15.90;;;10.20;;
67941;SDS011;54731;42.600;23.476;2023-06-22T14:07:01;14.10;;;10.73;;
67941;SDS011;54731;42.600;23.476;2023-06-22T14:09:26;14.93;;;10.63;;
67941;SDS011;54731;42.600;23.476;2023-06-22T14:11:53;14.83;;;10.60;;
67941;SDS011;54731;42.600;23.476;2023-06-22T14:14:19;13.40;;;10.43;;
67941;SDS011;54731;42.600;23.476;2023-06-22T14:16:45;13.63;;;9.60;;
67941;SDS011;54731;42.600;23.476;2023-06-22T14:19:10;12.35;;;10.93;;